Time;durP1;ratioP1;P1;durP2;ratioP2;P2;SDS_P1;SDS_P2;PMS_P1;PMS_P2;Temp;Humidity;BMP_temperature;BMP_pressure;BME280_temperature;BME280_humidity;BME280_pressure;Samples;Min_cycle;Max_cycle;Signal;HPM_P1;HPM_P2
2021/07/14 00:00:41;;;;;;;6.65;4.70;;;;;;;21.89;100.00;99815.31;5160077;28;20029;-76
2021/07/14 00:03:11;;;;;;;7.10;5.13;;;;;;;21.84;100.00;99819.41;5159218;28;20400;-76
2021/07/14 00:05:42;;;;;;;7.53;5.13;;;;;;;21.85;100.00;99813.09;5159562;28;20524;-76
2021/07/14 00:08:12;;;;;;;8.23;4.93;;;;;;;21.87;100.00;99809.31;5158162;28;20028;-76
2021/07/14 00:10:43;;;;;;;6.97;5.22;;;;;;;21.95;100.00;99805.94;5159687;28;20533;-76
2021/07/14 00:24:06;;;;;;;9.02;5.70;;;;;;;22.07;100.00;99808.28;5159491;28;20403;-76
2021/07/14 00:26:37;;;;;;;10.15;5.78;;;;;;;22.39;100.00;99815.91;5160295;28;20026;-76
2021/07/14 00:29:11;;;;;;;9.10;6.03;;;;;;;22.19;100.00;99809.78;5159426;28;20022;-76
2021/07/14 00:31:42;;;;;;;14.45;5.72;;;;;;;22.15;100.00;99823.50;5155946;28;20274;-76
2021/07/14 00:34:12;;;;;;;9.07;5.20;;;;;;;22.17;100.00;99821.53;5159829;28;20076;-76
2021/07/14 00:36:42;;;;;;;9.57;5.40;;;;;;;22.09;100.00;99824.94;5158185;28;20026;-76
2021/07/14 00:39:12;;;;;;;9.33;5.67;;;;;;;22.07;100.00;99816.25;5159475;28;20273;-76
2021/07/14 00:41:43;;;;;;;10.93;5.60;;;;;;;22.15;100.00;99818.19;5158091;28;20663;-76
2021/07/14 00:44:13;;;;;;;7.32;5.22;;;;;;;22.14;100.00;99817.38;5159003;28;20329;-76
2021/07/14 00:46:47;;;;;;;10.57;6.15;;;;;;;22.04;100.00;99815.69;5158510;28;20049;-76
2021/07/14 00:49:18;;;;;;;9.13;5.93;;;;;;;22.12;100.00;99802.50;5156649;28;20377;-76
2021/07/14 00:51:49;;;;;;;8.80;6.40;;;;;;;22.19;100.00;99803.59;5158782;28;20092;-76
2021/07/14 00:54:19;;;;;;;8.68;6.15;;;;;;;22.19;100.00;99795.59;5157587;28;20022;-76
2021/07/14 00:56:50;;;;;;;9.98;6.10;;;;;;;22.33;100.00;99790.66;5148354;28;20044;-76
2021/07/14 00:59:21;;;;;;;10.02;6.50;;;;;;;22.39;100.00;99790.09;5158040;28;20030;-76
2021/07/14 01:01:51;;;;;;;9.38;6.13;;;;;;;22.26;100.00;99783.41;5160617;28;20313;-76
2021/07/14 01:04:29;;;;;;;10.50;6.30;;;;;;;22.35;100.00;99786.03;5160388;28;20436;-76
2021/07/14 01:07:06;;;;;;;9.40;6.90;;;;;;;22.27;100.00;99772.59;5163436;28;20488;-76
2021/07/14 01:09:56;;;;;;;11.25;6.82;;;;;;;22.23;100.00;99778.38;5161879;28;20030;-76
2021/07/14 01:12:39;;;;;;;9.80;7.10;;;;;;;22.21;100.00;99770.53;5161018;28;20499;-76
2021/07/14 01:15:16;;;;;;;10.68;7.13;;;;;;;22.19;100.00;99764.50;5158791;28;20403;-76
2021/07/14 01:18:24;;;;;;;13.90;7.22;;;;;;;22.21;100.00;99775.84;5162241;28;20117;-76
2021/07/14 01:21:00;;;;;;;11.02;7.38;;;;;;;21.99;100.00;99768.25;5139947;28;20497;-76
2021/07/14 01:23:40;;;;;;;12.38;7.47;;;;;;;22.10;100.00;99767.22;5171383;28;20038;-76
2021/07/14 01:26:36;;;;;;;9.48;7.38;;;;;;;22.14;100.00;99761.47;5160974;28;20613;-77
2021/07/14 01:29:08;;;;;;;;;;;;;;;22.13;100.00;99758.94;5177233;28;20105;-76
2021/07/14 01:31:41;;;;;;;9.88;7.85;;;;;;;22.13;100.00;99756.28;5157877;28;19944;-76
2021/07/14 01:34:12;;;;;;;9.63;7.75;;;;;;;21.99;100.00;99756.75;5162263;28;20380;-76
2021/07/14 01:36:44;;;;;;;11.07;7.82;;;;;;;22.07;100.00;99748.88;5159682;28;20038;-76
2021/07/14 01:39:16;;;;;;;11.68;7.88;;;;;;;21.96;100.00;99730.44;5161888;28;20497;-77
2021/07/14 01:41:49;;;;;;;8.85;7.95;;;;;;;21.92;100.00;99731.72;5161610;28;20485;-76
2021/07/14 01:44:25;;;;;;;10.55;7.90;;;;;;;21.84;100.00;99731.59;5162363;28;20033;-76
2021/07/14 01:47:00;;;;;;;11.38;8.45;;;;;;;21.75;100.00;99720.00;5161990;28;20557;-76
2021/07/14 01:49:35;;;;;;;11.98;8.18;;;;;;;21.81;100.00;99727.41;5161667;28;20393;-77
2021/07/14 01:52:09;;;;;;;11.80;8.83;;;;;;;21.84;100.00;99728.94;5161889;28;20038;-77
2021/07/14 01:54:42;;;;;;;11.25;8.82;;;;;;;21.97;100.00;99734.78;5157594;28;20360;-77
2021/07/14 01:57:13;;;;;;;13.18;8.73;;;;;;;21.74;100.00;99736.13;5161848;28;20245;-76
2021/07/14 01:59:46;;;;;;;12.40;8.48;;;;;;;21.78;100.00;99735.66;5161442;28;20077;-76
2021/07/14 02:02:19;;;;;;;15.57;9.70;;;;;;;21.73;100.00;99731.78;5161304;28;20030;-77
2021/07/14 02:04:51;;;;;;;11.52;9.25;;;;;;;21.90;100.00;99731.03;5161137;28;20134;-77
2021/07/14 02:07:25;;;;;;;15.18;10.18;;;;;;;21.64;100.00;99732.66;5161596;28;20023;-77
2021/07/14 02:09:56;;;;;;;12.50;9.50;;;;;;;21.63;100.00;99734.47;5161621;28;20054;-77
2021/07/14 02:12:29;;;;;;;11.05;9.65;;;;;;;21.61;100.00;99727.59;5161304;28;20108;-77
2021/07/14 02:15:09;;;;;;;15.32;9.02;;;;;;;21.57;100.00;99740.31;5161608;28;20253;-78
2021/07/14 02:17:56;;;;;;;11.30;9.77;;;;;;;21.45;100.00;99748.63;5156057;28;20041;-78
2021/07/14 02:20:27;;;;;;;11.45;9.32;;;;;;;21.47;100.00;99757.28;5161237;28;20018;-78
2021/07/14 02:22:57;;;;;;;12.13;10.70;;;;;;;21.40;100.00;99753.53;5161292;28;20493;-78
2021/07/14 02:25:28;;;;;;;14.50;10.43;;;;;;;21.41;100.00;99740.06;5161190;28;20058;-78
2021/07/14 02:27:58;;;;;;;12.25;9.85;;;;;;;21.43;100.00;99751.41;5160046;28;20033;-78
2021/07/14 02:30:28;;;;;;;12.45;9.85;;;;;;;21.44;100.00;99758.41;5159469;28;20325;-78
2021/07/14 02:33:04;;;;;;;13.93;10.30;;;;;;;21.45;100.00;99753.94;5160512;28;20026;-78
2021/07/14 02:35:38;;;;;;;15.80;11.35;;;;;;;21.54;100.00;99737.97;5161495;28;20053;-78
2021/07/14 02:38:20;;;;;;;13.35;10.32;;;;;;;21.66;100.00;99738.66;5157601;28;20602;-78
2021/07/14 02:40:58;;;;;;;12.98;10.88;;;;;;;21.68;100.00;99747.31;5160698;28;20026;-78
2021/07/14 02:43:29;;;;;;;13.25;10.95;;;;;;;21.49;100.00;99748.19;5159596;28;20027;-78
2021/07/14 02:46:03;;;;;;;15.27;11.45;;;;;;;21.39;100.00;99757.19;5160578;28;20531;-78
2021/07/14 02:48:35;;;;;;;14.00;11.82;;;;;;;21.41;100.00;99747.22;5160823;28;20026;-78
2021/07/14 02:51:07;;;;;;;17.17;12.30;;;;;;;21.67;100.00;99733.19;5158761;28;20077;-78
2021/07/14 02:53:45;;;;;;;16.60;13.38;;;;;;;21.53;100.00;99719.47;5154892;28;20018;-78
2021/07/14 02:56:20;;;;;;;15.90;13.80;;;;;;;21.43;100.00;99727.47;5160313;28;20022;-78
2021/07/14 02:59:03;;;;;;;19.60;14.97;;;;;;;21.40;100.00;99737.59;5160798;28;20177;-78
2021/07/14 03:01:40;;;;;;;19.42;14.57;;;;;;;21.42;100.00;99732.94;5160536;28;20026;-78
2021/07/14 03:04:12;;;;;;;24.45;17.10;;;;;;;21.32;100.00;99745.41;5156758;28;20030;-78
2021/07/14 03:06:44;;;;;;;22.95;17.40;;;;;;;21.30;100.00;99747.38;5160901;28;20113;-77
2021/07/14 03:09:15;;;;;;;24.98;18.67;;;;;;;21.16;100.00;99758.44;5160758;28;20098;-78
2021/07/14 03:11:45;;;;;;;24.48;19.58;;;;;;;21.16;100.00;99761.09;5160435;28;20489;-77
2021/07/14 03:14:16;;;;;;;22.75;19.45;;;;;;;21.16;100.00;99764.59;5158806;28;20018;-78
2021/07/14 03:16:46;;;;;;;20.80;18.10;;;;;;;21.16;100.00;99769.06;5160898;28;20026;-77
2021/07/14 03:19:18;;;;;;;27.42;19.95;;;;;;;21.20;100.00;99766.00;5160049;28;20503;-78
2021/07/14 03:21:49;;;;;;;24.65;21.35;;;;;;;21.22;100.00;99768.53;5160322;28;20066;-78
2021/07/14 03:24:20;;;;;;;28.30;22.67;;;;;;;21.39;100.00;99749.19;5157469;28;20653;-78
2021/07/14 03:26:50;;;;;;;28.52;22.77;;;;;;;21.59;100.00;99745.50;5162344;28;20061;-78
2021/07/14 03:29:23;;;;;;;31.17;23.48;;;;;;;21.52;100.00;99737.28;5168829;28;20040;-78
2021/07/14 03:31:54;;;;;;;32.75;24.58;;;;;;;21.42;100.00;99731.13;5166216;28;20034;-78
2021/07/14 03:34:25;;;;;;;30.15;25.20;;;;;;;21.32;100.00;99745.41;5164927;28;20022;-78
2021/07/14 03:36:55;;;;;;;35.25;26.25;;;;;;;21.30;100.00;99755.34;5164949;28;20032;-78
2021/07/14 03:39:26;;;;;;;32.30;27.73;;;;;;;21.30;100.00;99768.66;5168247;28;20037;-77
2021/07/14 03:41:59;;;;;;;35.20;29.15;;;;;;;21.25;100.00;99768.25;5165692;28;20041;-78
2021/07/14 03:44:30;;;;;;;32.65;28.88;;;;;;;21.38;100.00;99776.78;5158822;28;20604;-78
2021/07/14 03:47:02;;;;;;;35.97;29.15;;;;;;;21.46;100.00;99776.88;5159853;28;20061;-78
2021/07/14 03:49:34;;;;;;;34.08;28.45;;;;;;;21.59;100.00;99782.75;5159965;28;20022;-78
2021/07/14 03:52:06;;;;;;;34.17;27.80;;;;;;;21.47;100.00;99775.91;5159834;28;20105;-78
2021/07/14 03:54:38;;;;;;;34.40;29.10;;;;;;;21.31;100.00;99783.63;5157634;28;20607;-78
2021/07/14 03:57:10;;;;;;;37.92;29.75;;;;;;;21.39;100.00;99781.09;5158334;28;20105;-78
2021/07/14 03:59:41;;;;;;;32.08;27.38;;;;;;;21.39;100.00;99781.94;5159176;28;20494;-78
2021/07/14 04:02:13;;;;;;;33.90;30.13;;;;;;;21.39;100.00;99781.94;5159508;28;20110;-78
2021/07/14 04:04:45;;;;;;;33.63;29.88;;;;;;;21.57;100.00;99774.06;5159588;28;20480;-78
2021/07/14 04:07:21;;;;;;;37.10;30.20;;;;;;;21.42;100.00;99773.66;5160525;28;20540;-78
2021/07/14 04:09:51;;;;;;;34.83;28.80;;;;;;;21.44;100.00;99766.38;5159023;28;20065;-79
2021/07/14 04:12:22;;;;;;;33.75;28.88;;;;;;;21.51;100.00;99764.84;5160295;28;20031;-78
2021/07/14 04:14:52;;;;;;;40.97;31.02;;;;;;;21.36;100.00;99760.09;5160456;28;20049;-78
2021/07/14 04:17:23;;;;;;;36.60;30.65;;;;;;;21.43;100.00;99766.53;5160100;28;20022;-78
2021/07/14 04:19:53;;;;;;;43.17;30.92;;;;;;;21.32;100.00;99756.91;5160204;28;20026;-78
2021/07/14 04:22:23;;;;;;;38.10;31.43;;;;;;;21.42;100.00;99754.22;5158013;28;20038;-78
2021/07/14 04:24:54;;;;;;;38.22;29.48;;;;;;;21.40;100.00;99757.00;5160338;28;20277;-78
2021/07/14 04:27:24;;;;;;;36.58;30.33;;;;;;;21.52;100.00;99750.56;5158931;28;20037;-78
2021/07/14 04:29:54;;;;;;;40.63;31.70;;;;;;;21.39;100.00;99757.19;5166405;28;20045;-78
2021/07/14 04:32:24;;;;;;;38.83;31.20;;;;;;;21.42;100.00;99749.72;5165767;28;20284;-78
2021/07/14 04:34:55;;;;;;;42.83;29.98;;;;;;;21.45;100.00;99748.63;5163346;28;20109;-78
2021/07/14 04:37:25;;;;;;;37.42;30.65;;;;;;;21.55;100.00;99741.47;5166340;28;20032;-78
2021/07/14 04:39:55;;;;;;;43.77;31.33;;;;;;;21.57;100.00;99748.31;5166099;28;20026;-78
2021/07/14 04:42:26;;;;;;;33.83;29.05;;;;;;;21.52;100.00;99739.06;5168066;28;20286;-78
2021/07/14 04:44:56;;;;;;;39.25;30.73;;;;;;;21.62;100.00;99734.59;5169197;28;21493;-78
2021/07/14 04:47:26;;;;;;;39.83;31.27;;;;;;;21.71;100.00;99747.88;5170984;28;20034;-78
2021/07/14 04:49:56;;;;;;;34.97;30.23;;;;;;;21.69;100.00;99744.53;5169554;28;20285;-78
2021/07/14 04:52:27;;;;;;;34.60;28.75;;;;;;;21.76;100.00;99744.78;5170454;28;20847;-78
2021/07/14 04:54:57;;;;;;;34.10;28.35;;;;;;;21.87;100.00;99740.13;5167597;28;20038;-79
2021/07/14 04:57:27;;;;;;;33.83;27.37;;;;;;;21.78;100.00;99737.50;5164722;28;20030;-78
2021/07/14 04:59:57;;;;;;;38.20;28.43;;;;;;;21.84;100.00;99737.75;5171214;28;20779;-78
2021/07/14 05:02:28;;;;;;;36.83;27.60;;;;;;;21.86;100.00;99753.56;5168850;28;20347;-78
2021/07/14 05:04:58;;;;;;;30.63;25.08;;;;;;;22.01;100.00;99741.47;5167134;28;20277;-79
2021/07/14 05:07:30;;;;;;;36.63;27.73;;;;;;;22.07;100.00;99738.25;5169426;28;20030;-78
2021/07/14 05:10:00;;;;;;;36.15;27.48;;;;;;;22.09;100.00;99725.63;5171306;28;20280;-78
2021/07/14 05:12:30;;;;;;;32.40;26.40;;;;;;;22.32;100.00;99717.09;5167662;28;20018;-78
2021/07/14 05:15:00;;;;;;;32.08;25.52;;;;;;;22.39;100.00;99715.53;5167803;28;20045;-79
2021/07/14 05:17:31;;;;;;;31.07;25.97;;;;;;;22.41;100.00;99715.38;5169649;28;20034;-78
2021/07/14 05:20:01;;;;;;;34.17;24.90;;;;;;;22.57;100.00;99712.91;5170448;28;20281;-78
2021/07/14 05:22:31;;;;;;;30.67;24.92;;;;;;;22.47;100.00;99722.75;5160870;28;20025;-78
2021/07/14 05:25:03;;;;;;;34.27;24.57;;;;;;;22.57;100.00;99726.22;5165723;28;20036;-78
2021/07/14 05:27:34;;;;;;;30.13;24.77;;;;;;;22.29;100.00;99725.34;5163839;28;20269;-78
2021/07/14 05:30:06;;;;;;;29.48;25.48;;;;;;;22.00;100.00;99734.47;5162278;28;20219;-78
2021/07/14 05:32:36;;;;;;;34.70;27.27;;;;;;;21.80;100.00;99732.88;5162581;28;20032;-78
2021/07/14 05:35:07;;;;;;;33.55;25.27;;;;;;;21.98;100.00;99733.78;5162258;28;20022;-78
2021/07/14 05:37:38;;;;;;;28.73;24.60;;;;;;;21.94;100.00;99725.25;5159733;28;20034;-78
2021/07/14 05:40:08;;;;;;;30.23;25.17;;;;;;;22.09;100.00;99737.09;5161562;28;20349;-78
2021/07/14 05:42:39;;;;;;;34.10;24.85;;;;;;;22.12;100.00;99749.28;5160580;28;20293;-78
2021/07/14 05:45:09;;;;;;;30.70;24.80;;;;;;;22.37;100.00;99754.75;5159231;28;20050;-78
2021/07/14 05:47:40;;;;;;;26.83;23.95;;;;;;;22.26;100.00;99757.59;5163566;28;20033;-78
2021/07/14 05:50:10;;;;;;;36.15;25.55;;;;;;;22.23;100.00;99752.56;5161485;28;20093;-78
2021/07/14 05:52:41;;;;;;;28.00;24.65;;;;;;;22.45;100.00;99762.03;5163403;28;20022;-78
2021/07/14 05:55:11;;;;;;;28.77;23.65;;;;;;;22.69;100.00;99760.47;5161543;28;20037;-78
2021/07/14 05:57:41;;;;;;;25.83;22.95;;;;;;;22.67;100.00;99770.44;5162618;28;20113;-79
2021/07/14 06:00:12;;;;;;;26.10;21.35;;;;;;;22.64;100.00;99777.91;5166907;28;20022;-78
2021/07/14 06:02:43;;;;;;;31.15;23.08;;;;;;;22.42;100.00;99791.63;5165983;28;20105;-78
2021/07/14 06:05:13;;;;;;;26.33;20.88;;;;;;;22.57;100.00;99790.16;5165088;28;20113;-78
2021/07/14 06:07:43;;;;;;;26.00;21.33;;;;;;;22.48;100.00;99793.69;5163175;28;20069;-78
2021/07/14 06:10:14;;;;;;;23.83;20.50;;;;;;;22.55;100.00;99789.44;5161677;28;20039;-78
2021/07/14 06:12:44;;;;;;;27.88;20.65;;;;;;;22.59;100.00;99790.84;5162395;28;20712;-78
2021/07/14 06:15:14;;;;;;;27.45;20.50;;;;;;;22.55;100.00;99797.44;5161477;28;20365;-78
2021/07/14 06:17:44;;;;;;;23.75;20.38;;;;;;;22.19;100.00;99800.94;5161887;28;20484;-78
2021/07/14 06:20:15;;;;;;;23.63;20.30;;;;;;;22.17;100.00;99800.25;5161203;28;20054;-78
2021/07/14 06:22:46;;;;;;;26.48;20.98;;;;;;;22.13;100.00;99797.06;5161057;28;20623;-78
2021/07/14 06:25:17;;;;;;;23.58;20.88;;;;;;;22.11;100.00;99803.50;5164359;28;20104;-79
2021/07/14 06:27:47;;;;;;;23.85;19.88;;;;;;;22.19;100.00;99800.94;5165548;28;20033;-78
2021/07/14 06:30:18;;;;;;;22.38;18.77;;;;;;;22.42;100.00;99799.63;5160814;28;20301;-78
2021/07/14 06:32:52;;;;;;;20.23;16.90;;;;;;;22.33;100.00;99795.13;5160633;28;20045;-78
2021/07/14 06:35:22;;;;;;;17.58;15.68;;;;;;;22.38;100.00;99782.22;5161911;28;20070;-78
2021/07/14 06:37:52;;;;;;;19.35;15.63;;;;;;;22.38;100.00;99760.91;5160658;28;20107;-78
2021/07/14 06:40:23;;;;;;;20.48;16.67;;;;;;;22.14;100.00;99765.94;5162408;28;20033;-78
2021/07/14 06:42:53;;;;;;;16.50;14.75;;;;;;;22.18;100.00;99769.97;5163060;28;20023;-78
2021/07/14 06:45:25;;;;;;;19.10;15.90;;;;;;;22.06;100.00;99776.50;5163612;28;20025;-78
2021/07/14 06:47:55;;;;;;;18.05;15.65;;;;;;;22.40;100.00;99773.13;5162154;28;20460;-78
2021/07/14 06:50:25;;;;;;;17.77;15.00;;;;;;;22.58;100.00;99765.19;5161724;28;20125;-78
2021/07/14 06:52:56;;;;;;;18.58;15.48;;;;;;;22.47;100.00;99766.25;5162524;28;20795;-78
2021/07/14 06:55:26;;;;;;;18.20;13.80;;;;;;;22.55;100.00;99773.44;5162931;28;20080;-78
2021/07/14 06:57:56;;;;;;;17.13;14.60;;;;;;;22.62;100.00;99770.03;5161895;28;20112;-78
2021/07/14 07:00:27;;;;;;;15.73;13.40;;;;;;;22.59;100.00;99764.19;5163139;28;20117;-78
2021/07/14 07:02:58;;;;;;;15.52;12.73;;;;;;;23.04;100.00;99753.31;5162047;28;20347;-79
2021/07/14 07:05:28;;;;;;;17.07;12.80;;;;;;;23.30;100.00;99745.41;5163037;28;20385;-78
2021/07/14 07:07:58;;;;;;;16.03;13.13;;;;;;;22.96;100.00;99753.25;5163317;28;20273;-79
2021/07/14 07:10:29;;;;;;;15.83;13.17;;;;;;;22.91;100.00;99750.22;5162732;28;20288;-78
2021/07/14 07:12:59;;;;;;;13.55;11.90;;;;;;;23.01;100.00;99753.63;5162070;28;20843;-78
2021/07/14 07:15:29;;;;;;;15.23;12.57;;;;;;;23.00;100.00;99759.13;5162778;28;20476;-78
2021/07/14 07:17:59;;;;;;;18.03;13.70;;;;;;;22.89;100.00;99772.69;5161621;28;20308;-78
2021/07/14 07:20:30;;;;;;;16.90;12.77;;;;;;;23.13;100.00;99752.44;5162663;28;20277;-78
2021/07/14 07:23:00;;;;;;;17.90;12.50;;;;;;;23.36;100.00;99761.63;5162256;28;20340;-78
2021/07/14 07:25:30;;;;;;;15.30;13.23;;;;;;;23.58;100.00;99760.31;5160647;28;20269;-78
2021/07/14 07:28:02;;;;;;;17.33;13.32;;;;;;;24.09;100.00;99746.97;5161939;28;20365;-78
2021/07/14 07:30:32;;;;;;;13.65;11.20;;;;;;;25.87;95.68;99738.06;5161515;28;20026;-78
2021/07/14 07:33:03;;;;;;;13.13;10.17;;;;;;;27.10;86.65;99725.38;5163126;28;20354;-79
2021/07/14 07:35:33;;;;;;;13.20;9.70;;;;;;;27.30;82.44;99737.28;5163607;28;20284;-79
2021/07/14 07:38:05;;;;;;;14.73;9.20;;;;;;;27.10;85.25;99749.53;5177957;28;20270;-78
2021/07/14 07:40:36;;;;;;;9.93;8.55;;;;;;;26.04;89.09;99766.47;5162160;28;20042;-78
2021/07/14 07:43:06;;;;;;;10.35;7.20;;;;;;;26.28;88.36;99761.00;5160447;28;20022;-78
2021/07/14 07:45:36;;;;;;;10.80;7.38;;;;;;;26.04;88.30;99769.16;5162221;28;20030;-78
2021/07/14 07:48:07;;;;;;;12.20;7.13;;;;;;;25.06;93.26;99768.50;5158230;28;20484;-78
2021/07/14 07:50:37;;;;;;;11.65;6.25;;;;;;;24.82;94.23;99781.81;5161794;28;20026;-78
2021/07/14 07:53:07;;;;;;;10.30;6.13;;;;;;;24.33;95.15;99785.31;5159104;28;20022;-78
2021/07/14 07:55:38;;;;;;;9.93;6.50;;;;;;;24.30;94.58;99784.78;5161462;28;20416;-78
2021/07/14 07:58:08;;;;;;;9.77;6.53;;;;;;;23.95;98.55;99795.59;5161336;28;20479;-78
2021/07/14 08:00:39;;;;;;;8.23;6.10;;;;;;;23.94;100.00;99802.78;5159662;28;20038;-78
2021/07/14 08:03:09;;;;;;;7.97;6.10;;;;;;;24.02;99.25;99796.66;5160966;28;20420;-78
2021/07/14 08:05:41;;;;;;;10.07;6.35;;;;;;;24.09;97.04;99792.34;5159109;28;20033;-78
2021/07/14 08:08:11;;;;;;;11.10;6.47;;;;;;;23.99;99.14;99789.81;5159150;28;20022;-78
2021/07/14 08:10:42;;;;;;;15.30;10.50;;;;;;;23.69;100.00;99795.56;5159704;28;20049;-78
2021/07/14 08:13:13;;;;;;;21.95;12.27;;;;;;;23.37;100.00;99800.66;5161223;28;20046;-79
2021/07/14 08:15:45;;;;;;;16.63;12.13;;;;;;;23.28;100.00;99800.72;5170994;28;20030;-79
2021/07/14 08:18:15;;;;;;;18.92;12.02;;;;;;;23.17;100.00;99806.31;5173049;28;20084;-79
2021/07/14 08:20:46;;;;;;;22.45;12.52;;;;;;;22.82;100.00;99803.59;5169990;28;20513;-80
2021/07/14 08:23:17;;;;;;;18.33;12.10;;;;;;;22.95;100.00;99796.91;5169750;28;20480;-78
2021/07/14 08:25:48;;;;;;;16.65;11.68;;;;;;;22.89;100.00;99791.34;5169065;28;20045;-78
2021/07/14 08:28:20;;;;;;;16.70;12.20;;;;;;;22.94;100.00;99781.91;5169803;28;20105;-78
2021/07/14 08:30:50;;;;;;;16.20;13.32;;;;;;;22.90;100.00;99780.53;5170017;28;20412;-78
2021/07/14 08:33:20;;;;;;;24.08;13.05;;;;;;;22.89;100.00;99784.19;5169135;28;20025;-78
2021/07/14 08:35:51;;;;;;;20.73;11.90;;;;;;;22.97;100.00;99794.91;5171084;28;20373;-79
2021/07/14 08:38:22;;;;;;;16.55;11.57;;;;;;;23.16;100.00;99792.13;5169685;28;20030;-77
2021/07/14 08:40:53;;;;;;;15.60;11.13;;;;;;;23.14;100.00;99786.13;5173148;28;20033;-79
2021/07/14 08:43:29;;;;;;;17.48;10.40;;;;;;;23.58;100.00;99787.84;5176377;28;20023;-77
2021/07/14 08:46:01;;;;;;;16.60;11.40;;;;;;;23.40;100.00;99783.50;5173467;28;20030;-78
2021/07/14 08:48:32;;;;;;;19.17;11.40;;;;;;;23.42;100.00;99794.84;5178530;28;20034;-77
2021/07/14 08:51:03;;;;;;;18.20;10.88;;;;;;;23.60;100.00;99801.00;5174848;28;20025;-77
2021/07/14 08:53:33;;;;;;;17.92;11.02;;;;;;;23.53;100.00;99802.63;5170542;28;20022;-78
2021/07/14 08:56:03;;;;;;;18.08;11.40;;;;;;;23.35;100.00;99807.16;5175613;28;20026;-78
2021/07/14 08:58:34;;;;;;;20.98;11.93;;;;;;;23.36;100.00;99806.97;5175619;28;20034;-80
2021/07/14 09:01:04;;;;;;;16.00;10.85;;;;;;;23.37;100.00;99805.97;5175129;28;20497;-76
2021/07/14 09:03:35;;;;;;;14.48;10.73;;;;;;;23.21;100.00;99816.50;5175899;28;20019;-78
2021/07/14 09:06:07;;;;;;;16.80;10.27;;;;;;;23.25;100.00;99817.91;5177053;28;20038;-79
2021/07/14 09:08:38;;;;;;;15.13;10.18;;;;;;;23.29;100.00;99824.59;5171714;28;20285;-77
2021/07/14 09:11:08;;;;;;;17.30;11.30;;;;;;;23.26;100.00;99830.25;5176717;28;20018;-77
2021/07/14 09:13:42;;;;;;;16.85;11.80;;;;;;;23.10;100.00;99830.06;5174098;28;20232;-80
2021/07/14 09:16:33;;;;;;;18.95;11.70;;;;;;;22.73;100.00;99841.78;5175541;28;20138;-76
2021/07/14 09:19:13;;;;;;;20.48;11.38;;;;;;;22.69;100.00;99841.22;5174388;28;20041;-80
2021/07/14 09:21:43;;;;;;;17.00;9.65;;;;;;;22.67;100.00;99836.22;5171017;28;20030;-79
2021/07/14 09:24:25;;;;;;;14.70;9.05;;;;;;;22.77;100.00;99832.50;5172200;28;20060;-77
2021/07/14 09:26:56;;;;;;;17.05;8.95;;;;;;;22.73;100.00;99819.66;5176310;28;20030;-78
2021/07/14 09:29:27;;;;;;;12.35;7.85;;;;;;;22.76;100.00;99810.38;5176164;28;20036;-77
2021/07/14 09:31:58;;;;;;;14.30;8.43;;;;;;;22.71;100.00;99823.28;5172960;28;20026;-78
2021/07/14 09:34:32;;;;;;;13.18;8.68;;;;;;;22.76;100.00;99821.03;5176486;28;20483;-78
2021/07/14 09:37:04;;;;;;;13.63;7.53;;;;;;;22.48;100.00;99823.84;5174249;28;20026;-79
2021/07/14 09:39:40;;;;;;;10.77;6.40;;;;;;;22.64;100.00;99833.84;5176475;28;20032;-76
2021/07/14 09:42:12;;;;;;;12.05;6.13;;;;;;;22.57;100.00;99830.94;5171546;28;20038;-78
2021/07/14 09:44:45;;;;;;;9.55;6.03;;;;;;;22.44;100.00;99840.25;5173373;28;20026;-75
2021/07/14 09:47:18;;;;;;;10.70;5.63;;;;;;;22.32;100.00;99836.91;5174834;28;20041;-77
2021/07/14 09:49:49;;;;;;;8.25;4.75;;;;;;;22.50;100.00;99829.88;5174403;28;20030;-75
2021/07/14 09:52:21;;;;;;;8.63;4.20;;;;;;;22.60;100.00;99830.63;5175048;28;20061;-75
2021/07/14 09:55:05;;;;;;;6.22;4.30;;;;;;;22.66;100.00;99824.72;5172872;28;20073;-77
2021/07/14 09:57:35;;;;;;;6.25;4.03;;;;;;;22.78;100.00;99824.38;5176344;28;20428;-77
2021/07/14 10:00:19;;;;;;;6.50;3.85;;;;;;;22.91;100.00;99819.53;5174724;28;20030;-74
2021/07/14 10:02:56;;;;;;;8.10;4.53;;;;;;;23.04;100.00;99827.16;5171948;28;20134;-76
2021/07/14 10:05:27;;;;;;;11.65;5.70;;;;;;;23.13;100.00;99832.44;5173656;28;20050;-80
2021/07/14 10:08:19;;;;;;;10.15;5.65;;;;;;;23.43;99.12;99832.06;5177040;28;20030;-77
2021/07/14 10:10:50;;;;;;;9.43;5.80;;;;;;;23.40;98.52;99845.69;5172026;28;20034;-75
2021/07/14 10:13:21;;;;;;;9.75;6.32;;;;;;;23.27;99.61;99853.25;5189139;28;20018;-78
2021/07/14 10:16:00;;;;;;;12.05;5.95;;;;;;;23.27;100.00;99844.41;5174223;28;20026;-79
2021/07/14 10:18:32;;;;;;;9.65;5.63;;;;;;;23.22;99.19;99844.84;5175438;28;20488;-75
2021/07/14 10:21:04;;;;;;;13.43;8.07;;;;;;;23.06;97.50;99833.16;5174593;28;20030;-80
2021/07/14 10:23:34;;;;;;;9.80;6.55;;;;;;;22.96;99.71;99825.22;5175175;28;20035;-77
2021/07/14 10:26:06;;;;;;;12.35;6.40;;;;;;;23.07;100.00;99822.34;5179377;28;20034;-77
2021/07/14 10:28:36;;;;;;;10.32;6.15;;;;;;;23.35;99.15;99821.31;5165324;28;20038;-76
2021/07/14 10:31:09;;;;;;;14.45;7.38;;;;;;;23.36;98.68;99814.97;5183874;28;20030;-75
2021/07/14 10:33:40;;;;;;;13.02;7.25;;;;;;;23.11;100.00;99825.53;5179985;28;20087;-78
2021/07/14 10:36:14;;;;;;;9.30;6.57;;;;;;;23.25;98.60;99828.56;5182922;28;20022;-75
2021/07/14 10:38:50;;;;;;;9.18;6.22;;;;;;;23.22;96.90;99833.34;5184098;28;20161;-78
2021/07/14 10:41:21;;;;;;;13.57;6.93;;;;;;;23.16;99.46;99844.66;5180795;28;20141;-76
2021/07/14 10:43:54;;;;;;;12.20;6.82;;;;;;;23.27;98.57;99847.06;5183339;28;20037;-78
2021/07/14 10:46:28;;;;;;;13.15;7.90;;;;;;;22.86;100.00;99853.75;5186227;28;20036;-79
2021/07/14 10:49:05;;;;;;;9.48;6.93;;;;;;;23.07;99.58;99853.50;5183452;28;20037;-76
2021/07/14 10:51:37;;;;;;;13.10;7.25;;;;;;;23.38;98.86;99861.00;5182215;28;20060;-76
2021/07/14 10:54:10;;;;;;;12.15;7.68;;;;;;;23.26;100.00;99859.56;5179675;28;20030;-76
2021/07/14 10:56:44;;;;;;;12.00;7.07;;;;;;;23.08;100.00;99877.34;5178719;28;20034;-77
2021/07/14 10:59:15;;;;;;;11.23;8.05;;;;;;;22.81;100.00;99879.22;5186727;28;20093;-79
2021/07/14 11:01:49;;;;;;;13.25;7.82;;;;;;;22.88;100.00;99872.28;5181248;28;20033;-76
2021/07/14 11:04:25;;;;;;;13.07;7.53;;;;;;;23.12;100.00;99876.09;5186737;28;20022;-76
2021/07/14 11:06:59;;;;;;;10.27;7.45;;;;;;;23.69;98.42;99867.63;5186277;28;20053;-78
2021/07/14 11:09:32;;;;;;;10.10;7.53;;;;;;;23.82;97.86;99870.78;5181835;28;20037;-75
2021/07/14 11:12:06;;;;;;;15.02;8.93;;;;;;;23.51;98.68;99882.81;5181229;28;20022;-77
2021/07/14 11:14:41;;;;;;;13.48;8.80;;;;;;;23.30;99.75;99876.09;5180043;28;20026;-77
2021/07/14 11:17:13;;;;;;;10.90;8.40;;;;;;;23.56;100.00;99864.50;5173434;28;20037;-75
2021/07/14 11:19:52;;;;;;;11.27;7.43;;;;;;;23.95;94.94;99849.84;5174924;28;20046;-76
2021/07/14 11:22:39;;;;;;;12.40;7.38;;;;;;;24.36;93.00;99858.97;5180412;28;20570;-76
2021/07/14 11:25:20;;;;;;;11.85;7.20;;;;;;;24.37;94.28;99860.63;5176931;28;20081;-78
2021/07/14 11:27:54;;;;;;;11.57;6.18;;;;;;;24.26;94.89;99869.75;5176949;28;20034;-76
2021/07/14 11:30:36;;;;;;;9.65;7.30;;;;;;;24.13;94.42;99871.16;5177886;28;20045;-77
2021/07/14 11:33:07;;;;;;;9.52;7.50;;;;;;;24.31;96.67;99864.78;5178621;28;20112;-76
2021/07/14 11:35:45;;;;;;;12.45;7.82;;;;;;;24.14;95.08;99871.00;5187036;28;20029;-76
2021/07/14 11:38:19;;;;;;;12.45;8.52;;;;;;;23.96;95.02;99867.56;5176026;28;20030;-78
2021/07/14 11:40:53;;;;;;;11.38;8.00;;;;;;;24.40;94.87;99869.16;5180208;28;20113;-76
2021/07/14 11:43:27;;;;;;;13.63;8.60;;;;;;;24.14;94.13;99871.00;5181837;28;20026;-76
2021/07/14 11:46:06;;;;;;;14.00;9.60;;;;;;;23.86;96.44;99873.97;5179577;28;20038;-76
2021/07/14 11:48:39;;;;;;;11.73;8.77;;;;;;;24.11;96.05;99871.31;5183060;28;20562;-76
2021/07/14 11:51:16;;;;;;;12.80;9.10;;;;;;;23.98;96.86;99870.91;5178808;28;20030;-78